Time;durP1;ratioP1;P1;durP2;ratioP2;P2;SDS_P1;SDS_P2;PMS_P1;PMS_P2;Temp;Humidity;BMP_temperature;BMP_pressure;BME280_temperature;BME280_humidity;BME280_pressure;Samples;Min_cycle;Max_cycle;Signal;HPM_P1;HPM_P2
2021/01/03 00:01:53;;;;;;;14.60;8.20;;;1.80;99.90;;;;;;5054028;28;20178;-53
2021/01/03 00:04:20;;;;;;;14.48;8.52;;;1.80;99.90;;;;;;5053023;28;20178;-54
2021/01/03 00:06:49;;;;;;;13.23;7.75;;;1.90;99.90;;;;;;5053318;28;20179;-54
2021/01/03 00:09:15;;;;;;;15.40;8.07;;;1.90;99.90;;;;;;5052853;28;20560;-54
2021/01/03 00:11:42;;;;;;;14.38;7.45;;;2.00;99.90;;;;;;5053054;28;20205;-54
2021/01/03 00:14:08;;;;;;;13.48;8.13;;;2.00;99.90;;;;;;5052025;28;20194;-55
2021/01/03 00:16:34;;;;;;;12.77;7.88;;;2.10;99.90;;;;;;5052717;28;20187;-55
2021/01/03 00:19:00;;;;;;;16.38;7.70;;;2.10;99.90;;;;;;5053168;28;20174;-55
2021/01/03 00:21:26;;;;;;;14.90;7.97;;;2.10;99.90;;;;;;5052612;28;20182;-52
2021/01/03 00:23:52;;;;;;;15.25;7.82;;;2.10;99.90;;;;;;5053325;28;20197;-51
2021/01/03 00:26:19;;;;;;;12.90;7.78;;;2.10;99.90;;;;;;5052913;28;20234;-52
2021/01/03 00:28:45;;;;;;;14.20;7.97;;;2.10;99.90;;;;;;5053531;28;20615;-53
2021/01/03 00:31:11;;;;;;;13.18;7.47;;;2.20;99.90;;;;;;5053195;28;20178;-52
2021/01/03 00:33:37;;;;;;;13.75;8.15;;;2.20;99.90;;;;;;5052471;28;20221;-54
2021/01/03 00:36:04;;;;;;;12.02;7.18;;;2.20;99.90;;;;;;5053379;28;20167;-53
2021/01/03 00:38:30;;;;;;;14.55;7.03;;;2.20;99.90;;;;;;5052149;28;20194;-54
2021/01/03 00:40:56;;;;;;;14.30;7.05;;;2.30;99.90;;;;;;5052832;28;20655;-54
2021/01/03 00:43:23;;;;;;;12.55;7.03;;;2.20;99.90;;;;;;5052406;28;20179;-51
2021/01/03 00:45:49;;;;;;;12.20;6.85;;;2.30;99.90;;;;;;5052320;28;20191;-54
2021/01/03 00:48:15;;;;;;;11.18;6.63;;;2.20;99.90;;;;;;5053029;28;20183;-53
2021/01/03 00:50:41;;;;;;;13.63;7.05;;;2.30;99.90;;;;;;5052496;28;20190;-54
2021/01/03 00:53:07;;;;;;;12.25;6.72;;;2.30;99.90;;;;;;5053220;28;20218;-53
2021/01/03 00:55:34;;;;;;;12.75;6.90;;;2.30;99.90;;;;;;5052788;28;20189;-54
2021/01/03 00:58:00;;;;;;;14.85;6.97;;;2.30;99.90;;;;;;5052679;28;20185;-53
2021/01/03 01:00:29;;;;;;;10.05;6.40;;;2.30;99.90;;;;;;5052448;28;20173;-52
2021/01/03 01:02:55;;;;;;;9.23;6.13;;;2.30;99.90;;;;;;5052426;28;20174;-54
2021/01/03 01:05:21;;;;;;;11.05;6.47;;;2.30;99.90;;;;;;5052024;28;20171;-54
2021/01/03 01:07:48;;;;;;;10.07;5.95;;;2.30;99.90;;;;;;5052494;28;20186;-54
2021/01/03 01:10:16;;;;;;;9.00;5.80;;;2.30;99.90;;;;;;5052145;28;20174;-54
2021/01/03 01:12:42;;;;;;;10.10;5.80;;;2.30;99.90;;;;;;5053144;28;20218;-52
2021/01/03 01:15:13;;;;;;;8.68;5.78;;;2.30;99.90;;;;;;5050875;28;20183;-51
2021/01/03 01:17:41;;;;;;;9.65;5.43;;;2.30;99.90;;;;;;5052252;28;20178;-53
2021/01/03 01:20:08;;;;;;;10.82;6.07;;;2.30;99.90;;;;;;5052668;28;20171;-54
2021/01/03 01:22:34;;;;;;;10.00;5.80;;;2.30;99.90;;;;;;5052220;28;20190;-54
2021/01/03 01:25:00;;;;;;;9.68;5.28;;;2.30;99.90;;;;;;5052343;28;20218;-51
2021/01/03 01:27:26;;;;;;;9.20;5.32;;;2.30;99.90;;;;;;5052000;28;20177;-54
2021/01/03 01:29:52;;;;;;;8.90;5.47;;;2.30;99.90;;;;;;5051404;28;20179;-53
2021/01/03 01:32:18;;;;;;;8.40;5.13;;;2.30;99.90;;;;;;5051272;28;20219;-51
2021/01/03 01:34:44;;;;;;;10.23;5.13;;;2.30;99.90;;;;;;5052614;28;20535;-53
2021/01/03 01:37:11;;;;;;;6.18;4.25;;;2.30;99.90;;;;;;5052341;28;20646;-54
2021/01/03 01:39:37;;;;;;;7.25;4.25;;;2.30;99.90;;;;;;5052730;28;20639;-51
2021/01/03 01:42:03;;;;;;;6.10;4.28;;;2.30;99.90;;;;;;5052656;28;20693;-53
2021/01/03 01:44:29;;;;;;;6.40;4.55;;;2.30;99.90;;;;;;5052247;28;20193;-51
2021/01/03 01:47:06;;;;;;;6.10;3.47;;;2.30;99.90;;;;;;5052590;28;20186;-54
2021/01/03 01:49:37;;;;;;;4.32;3.17;;;2.30;99.90;;;;;;5050210;28;20174;-51
2021/01/03 01:52:03;;;;;;;5.10;3.53;;;2.30;99.90;;;;;;5034547;28;20693;-52
2021/01/03 01:54:31;;;;;;;5.65;3.67;;;2.30;99.90;;;;;;5034083;28;20658;-55
2021/01/03 01:57:38;;;;;;;7.40;3.35;;;2.30;99.90;;;;;;5051022;28;20175;-54
2021/01/03 02:00:12;;;;;;;5.72;3.50;;;2.40;99.90;;;;;;5009702;28;20183;-51
2021/01/03 02:02:40;;;;;;;6.20;3.83;;;2.30;99.90;;;;;;4996369;28;20179;-51
2021/01/03 02:05:31;;;;;;;5.65;3.97;;;2.30;99.90;;;;;;5036717;28;20182;-51
2021/01/03 02:08:08;;;;;;;7.75;4.78;;;2.30;99.90;;;;;;5054740;28;20201;-52
2021/01/03 02:10:41;;;;;;;7.15;4.28;;;2.30;99.90;;;;;;5054653;28;20166;-51
2021/01/03 02:13:10;;;;;;;8.55;4.28;;;2.30;99.90;;;;;;5056188;28;20213;-51
2021/01/03 02:15:37;;;;;;;6.05;4.40;;;2.30;99.90;;;;;;5055380;28;20185;-51
2021/01/03 02:18:04;;;;;;;6.30;4.45;;;2.20;99.90;;;;;;5037978;28;20175;-51
2021/01/03 02:20:39;;;;;;;6.95;4.60;;;2.30;99.90;;;;;;5055224;28;20198;-54
2021/01/03 02:23:06;;;;;;;6.18;4.40;;;2.30;99.90;;;;;;5053842;28;20213;-54
2021/01/03 02:25:32;;;;;;;6.35;4.07;;;2.30;99.90;;;;;;5031479;28;20226;-51
2021/01/03 02:28:27;;;;;;;5.90;4.20;;;2.40;99.90;;;;;;5029527;28;20186;-52
2021/01/03 02:30:54;;;;;;;6.10;3.80;;;2.40;99.90;;;;;;5041213;28;20187;-51
2021/01/03 02:33:25;;;;;;;7.40;3.95;;;2.30;99.90;;;;;;5050927;28;20711;-53
2021/01/03 02:35:58;;;;;;;5.45;3.47;;;2.30;99.90;;;;;;5034063;28;20187;-52
2021/01/03 02:38:26;;;;;;;4.70;3.08;;;2.30;99.90;;;;;;5063400;28;20181;-53
2021/01/03 02:40:52;;;;;;;4.60;3.15;;;2.30;99.90;;;;;;5033425;28;20206;-52
2021/01/03 02:43:18;;;;;;;6.13;3.47;;;2.30;99.90;;;;;;5040449;28;20170;-51
2021/01/03 02:45:45;;;;;;;5.80;3.50;;;2.30;99.90;;;;;;5055378;28;20166;-52
2021/01/03 02:48:19;;;;;;;6.85;2.72;;;2.30;99.90;;;;;;5055423;28;20186;-53
2021/01/03 02:50:45;;;;;;;5.53;3.40;;;2.30;99.90;;;;;;5055135;28;20545;-52
2021/01/03 02:53:12;;;;;;;5.82;3.25;;;2.30;99.90;;;;;;5053941;28;20679;-51
2021/01/03 02:55:38;;;;;;;3.72;2.75;;;2.40;99.90;;;;;;5054757;28;20183;-51
2021/01/03 02:58:04;;;;;;;4.60;3.10;;;2.30;99.90;;;;;;5054314;28;20190;-52
2021/01/03 03:00:33;;;;;;;5.55;2.80;;;2.30;99.90;;;;;;5053063;28;20540;-52
2021/01/03 03:02:59;;;;;;;5.10;3.38;;;2.30;99.90;;;;;;5054194;28;20190;-51
2021/01/03 03:05:25;;;;;;;6.82;3.17;;;2.30;99.90;;;;;;5054866;28;20181;-52
2021/01/03 03:07:52;;;;;;;4.47;3.40;;;2.30;99.90;;;;;;5053521;28;20171;-53
2021/01/03 03:10:18;;;;;;;3.95;2.83;;;2.20;99.90;;;;;;5054408;28;20183;-53
2021/01/03 03:12:56;;;;;;;4.82;3.15;;;2.20;99.90;;;;;;5053880;28;20204;-54
2021/01/03 03:15:23;;;;;;;4.15;3.03;;;2.20;99.90;;;;;;5053864;28;20197;-52
2021/01/03 03:17:49;;;;;;;4.47;3.13;;;2.10;99.90;;;;;;5054347;28;20189;-54
2021/01/03 03:20:16;;;;;;;5.35;2.95;;;2.10;99.90;;;;;;5053783;28;20181;-51
2021/01/03 03:22:42;;;;;;;5.10;3.50;;;2.00;99.90;;;;;;5053631;28;20209;-52
2021/01/03 03:25:09;;;;;;;5.05;3.03;;;2.00;99.90;;;;;;5054171;28;20218;-53
2021/01/03 03:27:35;;;;;;;5.68;3.33;;;2.10;99.90;;;;;;5054206;28;20557;-53
2021/01/03 03:30:04;;;;;;;3.75;2.90;;;2.10;99.90;;;;;;5053814;28;20209;-53
2021/01/03 03:32:30;;;;;;;6.32;3.83;;;2.10;99.90;;;;;;5053472;28;20222;-53
2021/01/03 03:34:56;;;;;;;6.05;3.67;;;2.00;99.90;;;;;;5054054;28;20190;-53
2021/01/03 03:37:22;;;;;;;11.10;5.53;;;2.00;99.90;;;;;;5053984;28;20201;-52
2021/01/03 03:39:49;;;;;;;13.65;7.40;;;2.00;99.90;;;;;;5053702;28;20182;-51
2021/01/03 03:42:15;;;;;;;15.48;8.85;;;2.00;99.90;;;;;;5053265;28;20183;-53
2021/01/03 03:44:42;;;;;;;15.40;8.50;;;2.00;99.90;;;;;;5052228;28;20187;-51
2021/01/03 03:47:08;;;;;;;17.15;8.68;;;2.00;99.90;;;;;;5052934;28;20178;-54
2021/01/03 03:49:34;;;;;;;12.38;7.50;;;1.90;99.90;;;;;;5053441;28;20182;-54
2021/01/03 03:52:03;;;;;;;11.48;6.88;;;1.90;99.90;;;;;;5054256;28;20527;-53
2021/01/03 03:54:29;;;;;;;11.88;7.28;;;1.80;99.90;;;;;;5053750;28;20189;-54
2021/01/03 03:57:01;;;;;;;11.98;7.00;;;1.80;99.90;;;;;;5053951;28;20167;-52
2021/01/03 03:59:27;;;;;;;12.38;7.32;;;1.70;99.90;;;;;;5053793;28;20181;-54
2021/01/03 04:01:54;;;;;;;6.95;4.38;;;1.70;99.90;;;;;;5053510;28;20537;-54
2021/01/03 04:04:20;;;;;;;5.55;3.88;;;1.70;99.90;;;;;;5052895;28;20183;-51
2021/01/03 04:06:46;;;;;;;6.40;3.92;;;1.80;99.90;;;;;;5053173;28;20193;-52
2021/01/03 04:09:13;;;;;;;7.57;3.78;;;1.80;99.90;;;;;;5053283;28;20170;-53
2021/01/03 04:11:43;;;;;;;5.50;3.83;;;1.80;99.90;;;;;;5053274;28;20185;-54
2021/01/03 04:14:10;;;;;;;6.63;3.80;;;1.70;99.90;;;;;;5053686;28;20218;-50
2021/01/03 04:16:36;;;;;;;7.22;3.63;;;1.80;99.90;;;;;;5053201;28;20250;-52
2021/01/03 04:19:02;;;;;;;4.55;3.10;;;1.80;99.90;;;;;;5053165;28;20190;-54
2021/01/03 04:21:28;;;;;;;5.90;3.45;;;1.90;99.90;;;;;;5052853;28;20182;-52
2021/01/03 04:23:56;;;;;;;4.28;2.95;;;1.90;99.90;;;;;;5053178;28;20525;-54
2021/01/03 04:26:22;;;;;;;4.88;2.88;;;1.90;99.90;;;;;;5052712;28;20214;-54
2021/01/03 04:28:48;;;;;;;4.55;2.83;;;2.00;99.90;;;;;;5053723;28;20183;-54
2021/01/03 04:31:18;;;;;;;4.10;2.88;;;2.10;99.90;;;;;;5053131;28;20190;-51
2021/01/03 04:33:44;;;;;;;4.55;2.70;;;2.10;99.90;;;;;;5052326;28;20241;-53
2021/01/03 04:36:15;;;;;;;4.88;2.67;;;2.10;99.90;;;;;;5052812;28;20178;-53
2021/01/03 04:38:41;;;;;;;4.72;2.85;;;2.10;99.90;;;;;;5052747;28;20194;-54
2021/01/03 04:41:09;;;;;;;4.30;2.60;;;2.10;99.90;;;;;;5052241;28;20662;-55
2021/01/03 04:43:36;;;;;;;3.88;2.30;;;2.10;99.90;;;;;;5035154;28;20179;-51
2021/01/03 04:46:05;;;;;;;4.30;2.47;;;2.10;99.90;;;;;;5052677;28;20542;-54
2021/01/03 04:48:32;;;;;;;2.92;2.08;;;2.10;99.90;;;;;;5051463;28;20535;-53
2021/01/03 04:51:30;;;;;;;3.38;2.40;;;2.20;99.90;;;;;;5035487;28;20178;-53
2021/01/03 04:54:12;;;;;;;5.85;1.98;;;2.20;99.90;;;;;;5037525;28;20218;-56
2021/01/03 04:56:41;;;;;;;3.80;2.00;;;2.10;99.90;;;;;;5044462;28;20174;-56
2021/01/03 04:59:24;;;;;;;3.78;2.03;;;2.10;99.90;;;;;;5052593;28;20201;-54
2021/01/03 05:01:53;;;;;;;2.45;1.80;;;2.10;99.90;;;;;;5050925;28;20309;-56
2021/01/03 05:05:13;;;;;;;2.97;2.08;;;2.10;99.90;;;;;;5051889;28;20194;-56
2021/01/03 05:07:41;;;;;;;2.92;1.80;;;2.20;99.90;;;;;;5011268;28;20160;-55
2021/01/03 05:10:20;;;;;;;3.35;2.17;;;2.20;99.90;;;;;;5047337;28;20183;-51
2021/01/03 05:13:08;;;;;;;3.80;1.92;;;2.20;99.90;;;;;;5051107;28;20182;-56
2021/01/03 05:15:34;;;;;;;2.22;1.83;;;2.10;99.90;;;;;;5050788;28;20636;-54
2021/01/03 05:18:01;;;;;;;2.92;1.92;;;2.10;99.90;;;;;;5052672;28;20186;-56
2021/01/03 05:20:27;;;;;;;5.15;1.95;;;2.10;99.90;;;;;;5051013;28;20627;-56
2021/01/03 05:22:53;;;;;;;3.40;2.05;;;2.20;99.90;;;;;;5052523;28;20206;-55
2021/01/03 05:25:21;;;;;;;3.28;2.28;;;2.20;99.90;;;;;;5050858;28;20217;-56
2021/01/03 05:28:04;;;;;;;4.38;2.50;;;2.20;99.90;;;;;;5050908;28;20166;-56
2021/01/03 05:30:30;;;;;;;3.40;2.35;;;2.20;99.90;;;;;;5051926;28;20557;-53
2021/01/03 05:33:13;;;;;;;3.67;2.60;;;2.20;99.90;;;;;;5052504;28;20198;-51
2021/01/03 05:35:42;;;;;;;4.30;2.28;;;2.20;99.90;;;;;;5052453;28;20178;-56
2021/01/03 05:38:09;;;;;;;3.90;2.50;;;2.20;99.90;;;;;;5055576;28;20167;-56
2021/01/03 05:40:42;;;;;;;4.47;2.55;;;2.20;99.90;;;;;;5037739;28;20174;-53
2021/01/03 05:43:24;;;;;;;4.70;2.60;;;2.20;99.90;;;;;;5055078;28;20193;-54
2021/01/03 05:46:13;;;;;;;5.88;2.65;;;2.20;99.90;;;;;;5055566;28;20166;-54
2021/01/03 05:48:44;;;;;;;4.15;2.75;;;2.20;99.90;;;;;;5055562;28;20538;-57
2021/01/03 05:51:33;;;;;;;4.50;2.92;;;2.20;99.90;;;;;;5055252;28;20158;-54
2021/01/03 05:54:16;;;;;;;4.47;2.67;;;2.20;99.90;;;;;;5055970;28;20222;-54
2021/01/03 05:56:43;;;;;;;5.40;3.10;;;2.20;99.90;;;;;;5039024;28;20162;-54
2021/01/03 05:59:17;;;;;;;5.03;3.28;;;2.20;99.90;;;;;;5038366;28;20174;-56
2021/01/03 06:01:43;;;;;;;4.30;3.00;;;2.20;99.90;;;;;;5038733;28;20175;-52
2021/01/03 06:04:14;;;;;;;6.68;3.28;;;2.20;99.90;;;;;;5054937;28;20190;-54
2021/01/03 06:06:45;;;;;;;3.90;2.50;;;2.20;99.90;;;;;;5054070;28;20543;-54
2021/01/03 06:09:12;;;;;;;3.85;2.80;;;2.20;99.90;;;;;;5055397;28;20565;-56
2021/01/03 06:11:38;;;;;;;5.60;3.20;;;2.20;99.90;;;;;;5055669;28;20189;-55
2021/01/03 06:14:04;;;;;;;5.82;3.10;;;2.20;99.90;;;;;;5051035;28;20225;-53
2021/01/03 06:16:31;;;;;;;4.65;2.70;;;2.20;99.90;;;;;;5050622;28;20191;-53
2021/01/03 06:19:11;;;;;;;5.38;3.05;;;2.20;99.90;;;;;;5050368;28;20539;-54
2021/01/03 06:21:39;;;;;;;4.45;2.95;;;2.20;99.90;;;;;;5036726;28;20202;-53
2021/01/03 06:24:25;;;;;;;4.32;2.92;;;2.20;99.90;;;;;;5055616;28;20183;-55
2021/01/03 06:26:52;;;;;;;5.32;3.50;;;2.10;99.90;;;;;;5055768;28;20632;-55
2021/01/03 06:29:44;;;;;;;4.68;3.08;;;2.10;99.90;;;;;;5051837;28;20171;-55
2021/01/03 06:32:41;;;;;;;4.53;3.20;;;2.10;99.90;;;;;;5035110;28;20628;-54
2021/01/03 06:35:13;;;;;;;4.65;2.88;;;2.10;99.90;;;;;;5055494;28;20193;-55
2021/01/03 06:37:43;;;;;;;4.57;3.00;;;2.10;99.90;;;;;;5055522;28;20194;-54
2021/01/03 06:40:16;;;;;;;5.07;3.42;;;2.10;99.90;;;;;;5054979;28;20179;-54
2021/01/03 06:43:22;;;;;;;6.47;3.40;;;2.10;99.90;;;;;;5045164;28;20182;-54
2021/01/03 06:46:39;;;;;;;6.72;3.80;;;2.10;99.90;;;;;;5054254;28;20615;-55
2021/01/03 06:49:08;;;;;;;4.90;3.08;;;2.00;99.90;;;;;;5013000;28;20184;-52
2021/01/03 06:51:58;;;;;;;4.97;3.17;;;2.00;99.90;;;;;;5012802;28;20172;-53
2021/01/03 06:55:11;;;;;;;4.95;3.10;;;2.00;99.90;;;;;;5039901;28;20226;-54
2021/01/03 06:57:50;;;;;;;5.32;3.15;;;2.00;99.90;;;;;;5050235;28;20199;-52
2021/01/03 07:00:25;;;;;;;6.20;3.33;;;2.00;99.90;;;;;;5034955;28;20226;-52
2021/01/03 07:02:59;;;;;;;5.80;3.58;;;1.90;99.90;;;;;;5049103;28;20654;-54
2021/01/03 07:05:25;;;;;;;5.15;3.22;;;1.90;99.90;;;;;;5037759;28;20159;-55
2021/01/03 07:08:00;;;;;;;6.32;3.70;;;1.80;99.90;;;;;;5053660;28;20174;-55
2021/01/03 07:10:39;;;;;;;8.88;3.10;;;1.80;99.90;;;;;;5037104;28;20510;-55
2021/01/03 07:13:29;;;;;;;6.80;3.70;;;1.90;99.90;;;;;;5054744;28;20206;-53
2021/01/03 07:15:58;;;;;;;5.45;3.30;;;1.90;99.90;;;;;;5048338;28;20202;-52
2021/01/03 07:18:45;;;;;;;8.10;3.42;;;1.90;99.90;;;;;;5053409;28;20611;-54
2021/01/03 07:21:11;;;;;;;7.10;3.33;;;1.90;99.90;;;;;;5054490;28;20167;-55
2021/01/03 07:23:42;;;;;;;4.93;3.60;;;1.80;99.90;;;;;;5054836;28;20205;-53
2021/01/03 07:26:30;;;;;;;6.57;3.83;;;1.80;99.90;;;;;;5053162;28;20225;-54
2021/01/03 07:29:16;;;;;;;7.93;3.83;;;1.80;99.90;;;;;;5054030;28;20185;-51
2021/01/03 07:31:55;;;;;;;6.15;3.55;;;1.90;99.90;;;;;;5054323;28;20182;-51
2021/01/03 07:34:27;;;;;;;7.47;3.78;;;1.90;99.90;;;;;;5052845;28;20206;-54
2021/01/03 07:37:14;;;;;;;5.82;3.75;;;1.80;99.90;;;;;;5054310;28;20170;-52
2021/01/03 07:40:00;;;;;;;6.63;3.75;;;1.90;99.90;;;;;;5054360;28;20541;-51
2021/01/03 07:42:52;;;;;;;6.25;3.70;;;1.90;99.90;;;;;;5043355;28;20163;-54
2021/01/03 07:45:44;;;;;;;8.25;4.72;;;1.90;99.90;;;;;;5049052;28;20698;-55
2021/01/03 07:48:30;;;;;;;6.65;3.60;;;1.90;99.90;;;;;;5054114;28;20170;-55
2021/01/03 07:50:56;;;;;;;6.47;4.00;;;1.90;99.90;;;;;;5048763;28;20175;-54
2021/01/03 07:53:22;;;;;;;7.40;4.30;;;1.90;99.90;;;;;;5052282;28;20207;-54
2021/01/03 07:55:49;;;;;;;7.78;4.35;;;1.90;99.90;;;;;;5053991;28;20182;-53
2021/01/03 07:58:17;;;;;;;12.75;7.22;;;1.90;99.90;;;;;;5053689;28;20171;-56
2021/01/03 08:00:45;;;;;;;10.70;6.13;;;1.90;99.90;;;;;;5052874;28;20526;-55
2021/01/03 08:03:14;;;;;;;8.02;5.18;;;1.90;99.90;;;;;;5053753;28;20627;-55
2021/01/03 08:05:41;;;;;;;7.18;4.60;;;1.90;99.90;;;;;;5053588;28;20616;-55
2021/01/03 08:08:15;;;;;;;7.22;4.20;;;1.90;99.90;;;;;;5052459;28;20179;-54
2021/01/03 08:10:42;;;;;;;7.63;4.25;;;1.90;99.90;;;;;;5052233;28;20190;-55
2021/01/03 08:13:31;;;;;;;6.97;4.32;;;1.90;99.90;;;;;;5053612;28;20612;-55
2021/01/03 08:15:58;;;;;;;7.03;3.95;;;2.00;99.90;;;;;;5052529;28;20174;-56
2021/01/03 08:18:24;;;;;;;5.78;3.63;;;2.00;99.90;;;;;;5035895;28;20167;-56
2021/01/03 08:20:50;;;;;;;8.30;3.42;;;2.00;99.90;;;;;;5052267;28;20189;-53
2021/01/03 08:23:24;;;;;;;6.15;3.60;;;2.00;99.90;;;;;;5053049;28;20668;-55
2021/01/03 08:26:19;;;;;;;6.65;3.72;;;2.00;99.90;;;;;;5053598;28;20229;-54
2021/01/03 08:29:00;;;;;;;5.78;3.33;;;2.10;99.90;;;;;;5053376;28;20542;-54
2021/01/03 08:31:27;;;;;;;5.78;3.08;;;2.00;99.90;;;;;;5052121;28;20159;-52
2021/01/03 08:33:54;;;;;;;3.75;2.65;;;2.00;99.90;;;;;;5051760;28;20229;-54
2021/01/03 08:36:27;;;;;;;5.05;2.92;;;2.10;99.90;;;;;;5052232;28;20202;-53
2021/01/03 08:38:54;;;;;;;4.97;2.88;;;2.10;99.90;;;;;;5053259;28;20170;-55
2021/01/03 08:41:25;;;;;;;4.47;2.72;;;2.10;99.90;;;;;;5051485;28;20182;-53
2021/01/03 08:43:51;;;;;;;6.50;2.88;;;2.20;99.90;;;;;;5052134;28;20170;-52
2021/01/03 08:46:21;;;;;;;4.70;2.78;;;2.20;99.90;;;;;;5051957;28;20179;-54
2021/01/03 08:48:48;;;;;;;4.75;2.90;;;2.20;99.90;;;;;;5052279;28;20545;-55
2021/01/03 08:51:15;;;;;;;3.85;2.50;;;2.20;99.90;;;;;;5051999;28;20167;-55
2021/01/03 08:53:42;;;;;;;4.82;2.70;;;2.20;99.90;;;;;;5052661;28;20214;-52
2021/01/03 08:56:26;;;;;;;4.38;2.63;;;2.20;99.90;;;;;;5053071;28;20177;-54
2021/01/03 08:58:52;;;;;;;5.97;2.90;;;2.30;99.90;;;;;;5052131;28;20154;-55
2021/01/03 09:01:26;;;;;;;4.00;2.38;;;2.30;99.90;;;;;;5037673;28;20182;-54
2021/01/03 09:03:53;;;;;;;4.20;2.80;;;2.30;99.90;;;;;;5048718;28;20173;-52
2021/01/03 09:06:19;;;;;;;4.90;3.25;;;2.30;99.90;;;;;;5062870;28;20163;-54
2021/01/03 09:08:45;;;;;;;5.47;3.00;;;2.30;99.90;;;;;;5060123;28;20174;-55
2021/01/03 09:11:29;;;;;;;3.45;2.22;;;2.30;99.90;;;;;;5051241;28;20174;-56
2021/01/03 09:13:57;;;;;;;4.15;2.47;;;2.30;99.90;;;;;;5051795;28;20186;-54
2021/01/03 09:16:34;;;;;;;3.88;2.80;;;2.40;99.90;;;;;;5034825;28;20190;-53
2021/01/03 09:19:14;;;;;;;4.57;3.00;;;2.40;99.90;;;;;;5051496;28;20173;-55
2021/01/03 09:21:56;;;;;;;4.68;2.72;;;2.40;99.90;;;;;;5052349;28;20198;-56
2021/01/03 09:24:33;;;;;;;22.67;3.92;;;2.40;99.90;;;;;;5037204;28;20514;-55
2021/01/03 09:27:00;;;;;;;5.70;3.20;;;2.50;99.90;;;;;;5040198;28;20170;-55
2021/01/03 09:29:32;;;;;;;5.10;3.35;;;2.50;99.90;;;;;;5057708;28;20539;-55
2021/01/03 09:32:01;;;;;;;4.88;3.30;;;2.50;99.90;;;;;;5051281;28;20194;-55
2021/01/03 09:34:32;;;;;;;6.32;3.60;;;2.50;99.90;;;;;;5050119;28;20580;-54
2021/01/03 09:37:18;;;;;;;6.93;3.72;;;2.50;99.90;;;;;;5031683;28;20156;-54
2021/01/03 09:40:02;;;;;;;6.20;3.78;;;2.60;99.90;;;;;;5033393;28;20178;-53
2021/01/03 09:42:47;;;;;;;8.85;3.63;;;2.60;99.90;;;;;;5048138;28;20178;-53
2021/01/03 09:45:25;;;;;;;6.53;3.75;;;2.60;99.90;;;;;;5051751;28;20182;-52
2021/01/03 09:47:51;;;;;;;5.68;3.20;;;2.50;99.90;;;;;;5044904;28;20173;-54
2021/01/03 09:50:26;;;;;;;5.43;3.28;;;2.60;99.90;;;;;;5051868;28;20655;-53
2021/01/03 09:53:09;;;;;;;4.20;2.60;;;2.70;99.90;;;;;;5052519;28;20190;-55
2021/01/03 09:55:39;;;;;;;4.60;2.90;;;2.80;99.90;;;;;;5047694;28;20226;-53
2021/01/03 09:58:07;;;;;;;5.10;2.88;;;2.90;99.90;;;;;;5029570;28;20173;-54
2021/01/03 10:00:56;;;;;;;3.55;2.50;;;2.70;99.90;;;;;;5055705;28;20183;-59
2021/01/03 10:03:34;;;;;;;6.93;2.80;;;2.70;99.90;;;;;;5049908;28;20182;-55
2021/01/03 10:06:18;;;;;;;4.30;2.42;;;2.70;99.90;;;;;;5049414;28;20182;-55
2021/01/03 10:08:45;;;;;;;3.85;2.58;;;2.90;99.90;;;;;;5049482;28;20163;-55
2021/01/03 10:11:11;;;;;;;3.40;2.30;;;2.80;99.90;;;;;;5049532;28;20186;-53
2021/01/03 10:13:38;;;;;;;3.90;2.45;;;2.70;99.90;;;;;;5049388;28;20666;-54
2021/01/03 10:16:19;;;;;;;4.80;2.20;;;2.70;99.90;;;;;;5048631;28;20186;-53
2021/01/03 10:18:45;;;;;;;4.55;2.20;;;2.70;99.90;;;;;;5051434;28;20162;-54
2021/01/03 10:21:35;;;;;;;3.05;1.98;;;2.70;99.90;;;;;;5051900;28;20178;-54
2021/01/03 10:24:02;;;;;;;2.83;2.00;;;2.70;99.90;;;;;;5054681;28;20179;-54
2021/01/03 10:26:32;;;;;;;2.95;1.80;;;2.60;99.90;;;;;;5053377;28;20210;-53
2021/01/03 10:28:59;;;;;;;2.67;1.75;;;2.70;99.90;;;;;;5053419;28;20205;-57
2021/01/03 10:31:25;;;;;;;2.13;1.42;;;2.70;99.90;;;;;;5051860;28;20702;-54
2021/01/03 10:33:52;;;;;;;2.38;1.27;;;2.70;99.90;;;;;;5052633;28;20202;-55
2021/01/03 10:36:19;;;;;;;1.45;1.13;;;2.70;99.90;;;;;;5050194;28;20203;-55
2021/01/03 10:38:46;;;;;;;2.10;1.50;;;2.70;99.90;;;;;;5054776;28;20193;-55
2021/01/03 10:41:12;;;;;;;1.80;1.20;;;2.70;99.90;;;;;;5054747;28;20559;-55
2021/01/03 10:43:38;;;;;;;2.00;1.30;;;2.70;99.90;;;;;;5054127;28;20175;-54
2021/01/03 10:46:05;;;;;;;3.03;1.50;;;2.70;99.90;;;;;;5058727;28;20186;-54
2021/01/03 10:48:31;;;;;;;2.25;1.40;;;2.70;99.90;;;;;;5058555;28;20178;-56
2021/01/03 10:50:57;;;;;;;1.73;1.05;;;2.60;99.90;;;;;;5054720;28;20182;-53
2021/01/03 10:53:23;;;;;;;3.90;1.17;;;2.60;99.90;;;;;;5054788;28;20189;-53
2021/01/03 10:55:49;;;;;;;1.70;1.00;;;2.60;99.90;;;;;;5054411;28;20659;-53
2021/01/03 10:58:15;;;;;;;2.05;1.08;;;2.60;99.90;;;;;;5053244;28;20555;-56
2021/01/03 11:00:42;;;;;;;1.60;0.90;;;2.60;99.90;;;;;;5054418;28;20170;-54
2021/01/03 11:03:08;;;;;;;5.53;1.05;;;2.50;99.90;;;;;;5054855;28;20175;-52
2021/01/03 11:05:34;;;;;;;2.45;0.80;;;2.60;99.90;;;;;;5054497;28;20673;-54
2021/01/03 11:08:00;;;;;;;2.50;0.93;;;2.50;99.90;;;;;;5054987;28;20179;-54
2021/01/03 11:10:26;;;;;;;1.23;0.82;;;2.50;99.90;;;;;;5059227;28;20191;-54
2021/01/03 11:12:52;;;;;;;0.95;0.82;;;2.50;99.90;;;;;;5054297;28;20179;-53
2021/01/03 11:15:18;;;;;;;2.22;0.90;;;2.50;99.90;;;;;;5054253;28;20203;-52
2021/01/03 11:17:45;;;;;;;1.55;0.80;;;2.60;99.90;;;;;;5055001;28;20185;-52
2021/01/03 11:20:11;;;;;;;1.10;0.75;;;2.80;99.90;;;;;;5054690;28;20175;-54
2021/01/03 11:22:37;;;;;;;2.95;0.90;;;2.80;99.90;;;;;;5054556;28;20197;-54
2021/01/03 11:25:04;;;;;;;1.33;0.70;;;2.90;99.90;;;;;;5054298;28;20229;-52
2021/01/03 11:27:30;;;;;;;6.30;0.90;;;2.80;99.90;;;;;;5053996;28;20179;-56
2021/01/03 11:29:57;;;;;;;1.13;0.70;;;2.90;99.90;;;;;;5056236;28;20188;-55
2021/01/03 11:32:25;;;;;;;1.77;0.93;;;2.80;99.90;;;;;;5053599;28;20186;-52
2021/01/03 11:34:51;;;;;;;2.80;1.48;;;2.80;99.90;;;;;;5053367;28;20199;-53
2021/01/03 11:37:20;;;;;;;1.52;0.70;;;2.80;99.90;;;;;;5054112;28;20175;-53
2021/01/03 11:39:47;;;;;;;1.75;1.00;;;2.80;99.90;;;;;;5036774;28;20167;-55
2021/01/03 11:42:15;;;;;;;1.45;0.75;;;2.70;99.90;;;;;;5033036;28;20178;-55
2021/01/03 11:44:42;;;;;;;1.45;0.85;;;2.70;99.90;;;;;;5032979;28;20202;-56
2021/01/03 11:47:10;;;;;;;0.95;0.80;;;2.70;99.90;;;;;;5052305;28;20631;-55
2021/01/03 11:49:36;;;;;;;1.70;1.10;;;2.70;99.90;;;;;;5072355;28;20178;-54
2021/01/03 11:52:03;;;;;;;1.23;0.80;;;2.70;99.90;;;;;;5054415;28;20662;-53
2021/01/03 11:54:29;;;;;;;1.00;0.70;;;2.70;99.90;;;;;;5053209;28;20206;-52
2021/01/03 11:56:56;;;;;;;2.17;1.02;;;2.70;99.90;;;;;;5053396;28;20190;-55
2021/01/03 11:59:23;;;;;;;1.85;1.13;;;2.70;99.90;;;;;;5053250;28;20685;-52
2021/01/03 12:01:49;;;;;;;1.10;0.80;;;2.80;99.90;;;;;;5058122;28;20181;-52
2021/01/03 12:04:15;;;;;;;1.30;0.93;;;2.90;99.90;;;;;;5053284;28;20178;-54
2021/01/03 12:06:41;;;;;;;1.52;1.00;;;2.80;99.90;;;;;;5052559;28;20186;-52
2021/01/03 12:09:07;;;;;;;1.80;0.93;;;2.90;99.90;;;;;;5053500;28;20174;-54
2021/01/03 12:11:34;;;;;;;1.60;0.85;;;2.70;99.90;;;;;;5052963;28;20543;-52
2021/01/03 12:14:00;;;;;;;1.60;0.82;;;2.60;99.90;;;;;;5051561;28;20195;-51
2021/01/03 12:16:29;;;;;;;1.30;0.90;;;2.60;99.90;;;;;;5053032;28;20174;-55
2021/01/03 12:18:56;;;;;;;1.52;1.00;;;2.60;99.90;;;;;;5053100;28;20193;-55
2021/01/03 12:21:22;;;;;;;2.03;0.73;;;2.50;99.90;;;;;;5052657;28;20207;-55
2021/01/03 12:23:48;;;;;;;1.27;0.82;;;2.40;99.90;;;;;;5052843;28;20548;-53
2021/01/03 12:26:14;;;;;;;1.30;0.90;;;2.50;99.90;;;;;;5062912;28;20236;-55
2021/01/03 12:28:40;;;;;;;1.27;0.82;;;2.50;99.90;;;;;;5060552;28;20173;-54
2021/01/03 12:31:06;;;;;;;0.77;0.63;;;2.60;99.90;;;;;;5053890;28;20185;-52
2021/01/03 12:33:33;;;;;;;1.67;1.00;;;2.50;99.90;;;;;;5049778;28;20190;-53
2021/01/03 12:35:59;;;;;;;1.38;0.80;;;2.50;99.90;;;;;;5052867;28;20218;-52
2021/01/03 12:38:26;;;;;;;0.80;0.75;;;2.50;99.90;;;;;;5053004;28;20538;-57
2021/01/03 12:40:52;;;;;;;1.25;0.80;;;2.50;99.90;;;;;;5052619;28;20185;-51
2021/01/03 12:43:18;;;;;;;2.15;0.88;;;2.30;99.90;;;;;;5052770;28;20170;-55
2021/01/03 12:45:44;;;;;;;1.20;0.85;;;2.30;99.90;;;;;;5053221;28;20170;-55
2021/01/03 12:48:10;;;;;;;1.45;0.70;;;2.30;99.90;;;;;;5055455;28;20179;-52
2021/01/03 12:50:37;;;;;;;1.20;0.70;;;2.40;99.90;;;;;;5052530;28;20658;-54
2021/01/03 12:53:03;;;;;;;1.25;0.82;;;2.40;99.90;;;;;;5052597;28;20190;-51
2021/01/03 12:55:29;;;;;;;2.72;0.93;;;2.40;99.90;;;;;;5051375;28;20206;-52
2021/01/03 12:57:55;;;;;;;2.15;1.20;;;2.30;99.90;;;;;;5053036;28;20170;-52
2021/01/03 13:00:21;;;;;;;1.02;0.85;;;2.20;99.90;;;;;;5052676;28;20653;-54
2021/01/03 13:02:50;;;;;;;1.52;1.00;;;2.30;99.90;;;;;;5052287;28;20639;-53
2021/01/03 13:05:20;;;;;;;0.98;0.75;;;2.30;99.90;;;;;;5050692;28;20194;-53
2021/01/03 13:07:46;;;;;;;1.77;1.00;;;2.30;99.90;;;;;;5051862;28;20166;-52
2021/01/03 13:10:12;;;;;;;1.75;0.90;;;2.30;99.90;;;;;;5052025;28;20631;-52
2021/01/03 13:12:39;;;;;;;1.30;0.90;;;2.30;99.90;;;;;;5051946;28;20186;-52
2021/01/03 13:15:09;;;;;;;0.95;0.80;;;2.20;99.90;;;;;;5052529;28;20215;-53